createdAt,value
2023-04-23T00:01:27.299Z,101142.77
2023-04-23T00:03:57.564Z,101142.59
2023-04-23T00:06:26.987Z,101142.37
2023-04-23T00:08:55.616Z,101142.34
2023-04-23T00:11:23.974Z,101136.67
2023-04-23T00:13:52.298Z,101138.00
2023-04-23T00:16:21.357Z,101133.80
2023-04-23T00:18:49.586Z,101134.08
2023-04-23T00:21:17.738Z,101132.27
2023-04-23T00:23:46.306Z,101129.19
2023-04-23T00:26:14.518Z,101129.44
2023-04-23T00:28:42.651Z,101129.23
2023-04-23T00:31:10.878Z,101128.16
2023-04-23T00:33:39.064Z,101128.13
2023-04-23T00:36:07.487Z,101128.26
2023-04-23T00:38:35.834Z,101127.79
2023-04-23T00:41:04.089Z,101129.17
2023-04-23T00:43:32.508Z,101127.24
2023-04-23T00:46:00.877Z,101129.90
2023-04-23T00:48:29.372Z,101131.60
2023-04-23T00:51:04.158Z,101130.89
2023-04-23T00:53:33.690Z,101132.65
2023-04-23T00:56:04.510Z,101131.48
2023-04-23T00:58:33.199Z,101129.55
2023-04-23T01:01:04.550Z,101128.15
2023-04-23T01:03:36.688Z,101125.40
2023-04-23T01:06:05.589Z,101126.48
2023-04-23T01:08:34.682Z,101128.38
2023-04-23T01:11:03.369Z,101125.46
2023-04-23T01:13:31.587Z,101128.19
2023-04-23T01:15:59.752Z,101125.55
2023-04-23T01:18:28.089Z,101123.67
2023-04-23T01:20:56.208Z,101124.05
2023-04-23T01:23:24.540Z,101124.36
2023-04-23T01:25:53.193Z,101124.97
2023-04-23T01:28:21.856Z,101123.86
2023-04-23T01:30:50.382Z,101124.54
2023-04-23T01:33:19.549Z,101122.96
2023-04-23T01:35:49.534Z,101122.58
2023-04-23T01:38:18.437Z,101124.17
2023-04-23T01:40:47.125Z,101125.17
2023-04-23T01:43:16.235Z,101122.70
2023-04-23T01:45:44.485Z,101120.39
2023-04-23T01:48:12.775Z,101120.11
2023-04-23T01:50:41.521Z,101123.11
2023-04-23T01:53:09.696Z,101122.11
2023-04-23T01:55:42.408Z,101121.58
2023-04-23T01:58:10.521Z,101122.15
2023-04-23T02:00:38.666Z,101117.80
2023-04-23T02:03:07.187Z,101116.93
2023-04-23T02:05:36.537Z,101115.75
2023-04-23T02:08:04.982Z,101116.04
2023-04-23T02:10:33.205Z,101112.51
2023-04-23T02:13:02.223Z,101113.34
2023-04-23T02:15:30.569Z,101112.74
2023-04-23T02:17:58.761Z,101113.74
2023-04-23T02:20:26.922Z,101111.59
2023-04-23T02:22:55.402Z,101111.23
2023-04-23T02:25:23.708Z,101110.93
2023-04-23T02:27:52.032Z,101109.79
2023-04-23T02:30:20.406Z,101108.00
2023-04-23T02:32:48.649Z,101110.33
2023-04-23T02:35:16.766Z,101109.11
2023-04-23T02:37:45.025Z,101109.14
2023-04-23T02:40:13.175Z,101108.30
2023-04-23T02:42:43.735Z,101107.84
2023-04-23T02:45:12.357Z,101106.38
2023-04-23T02:47:40.587Z,101107.09
2023-04-23T02:50:08.937Z,101109.14
2023-04-23T02:52:37.298Z,101113.86
2023-04-23T02:55:07.296Z,101116.40
2023-04-23T02:57:35.662Z,101118.00
2023-04-23T03:00:07.081Z,101121.31
2023-04-23T03:02:35.812Z,101121.06
2023-04-23T03:05:05.467Z,101124.18
2023-04-23T03:07:33.541Z,101124.55
2023-04-23T03:10:01.674Z,101125.73
2023-04-23T03:12:29.890Z,101125.45
2023-04-23T03:14:58.081Z,101127.42
2023-04-23T03:17:26.182Z,101132.67
2023-04-23T03:19:54.439Z,101130.96
2023-04-23T03:22:22.772Z,101130.02
2023-04-23T03:24:50.963Z,101132.83
2023-04-23T03:27:19.076Z,101137.88
2023-04-23T03:29:47.445Z,101143.61
2023-04-23T03:32:15.647Z,101145.77
2023-04-23T03:34:43.871Z,101149.18
2023-04-23T03:37:12.056Z,101148.78
2023-04-23T03:39:40.552Z,101149.71
2023-04-23T03:42:08.628Z,101148.55
2023-04-23T03:44:36.784Z,101150.81
2023-04-23T03:47:05.159Z,101151.10
2023-04-23T03:49:33.393Z,101152.32
2023-04-23T03:52:01.489Z,101153.77
2023-04-23T03:54:29.716Z,101154.05
2023-04-23T03:56:57.962Z,101155.38
2023-04-23T03:59:26.057Z,101157.88
2023-04-23T04:01:54.346Z,101160.05
2023-04-23T04:04:22.579Z,101161.35
2023-04-23T04:06:51.276Z,101163.36
2023-04-23T04:09:19.341Z,101166.88
2023-04-23T04:11:47.494Z,101168.88
2023-04-23T04:14:15.616Z,101168.11
2023-04-23T04:16:43.815Z,101168.77
2023-04-23T04:19:12.020Z,101170.63
2023-04-23T04:21:40.251Z,101173.59
2023-04-23T04:24:08.855Z,101175.84
2023-04-23T04:26:37.480Z,101173.70
2023-04-23T04:29:05.729Z,101173.45
2023-04-23T04:31:34.998Z,101174.11
2023-04-23T04:34:03.274Z,101173.36
2023-04-23T04:36:31.984Z,101171.56
2023-04-23T04:39:00.836Z,101171.48
2023-04-23T04:41:28.948Z,101172.48
2023-04-23T04:43:58.682Z,101175.77
2023-04-23T04:46:29.322Z,101180.35
2023-04-23T04:48:57.627Z,101182.88
2023-04-23T04:51:26.405Z,101181.95
2023-04-23T04:53:54.507Z,101182.86
2023-04-23T04:56:24.227Z,101184.36
2023-04-23T04:58:52.563Z,101188.35
2023-04-23T05:01:22.042Z,101195.82
2023-04-23T05:03:50.680Z,101198.35
2023-04-23T05:06:18.865Z,101200.29
2023-04-23T05:08:48.460Z,101200.16
2023-04-23T05:11:18.221Z,101199.27
2023-04-23T05:13:49.037Z,101202.65
2023-04-23T05:16:17.384Z,101205.67
2023-04-23T05:18:45.535Z,101210.73
2023-04-23T05:21:16.144Z,101212.88
2023-04-23T05:23:44.304Z,101215.72
2023-04-23T05:26:12.539Z,101213.84
2023-04-23T05:28:40.752Z,101215.08
2023-04-23T05:31:08.830Z,101216.86
2023-04-23T05:33:48.739Z,101223.20
2023-04-23T05:36:18.419Z,101227.61
2023-04-23T05:38:47.246Z,101231.17
2023-04-23T05:41:16.041Z,101235.83
2023-04-23T05:43:44.292Z,101238.90
2023-04-23T05:46:12.797Z,101241.20
2023-04-23T05:48:41.060Z,101241.95
2023-04-23T05:51:09.212Z,101239.48
2023-04-23T05:53:37.972Z,101238.88
2023-04-23T05:56:06.281Z,101238.34
2023-04-23T05:58:34.405Z,101238.41
2023-04-23T06:01:03.146Z,101237.94
2023-04-23T06:03:31.536Z,101241.37
2023-04-23T06:06:00.161Z,101241.88
2023-04-23T06:08:28.473Z,101246.63
2023-04-23T06:10:56.707Z,101245.38
2023-04-23T06:13:24.862Z,101246.98
2023-04-23T06:15:53.068Z,101246.59
2023-04-23T06:18:21.372Z,101248.48
2023-04-23T06:20:51.619Z,101251.57
2023-04-23T06:23:19.799Z,101253.32
2023-04-23T06:25:47.999Z,101254.16
2023-04-23T06:28:16.295Z,101254.63
2023-04-23T06:30:44.503Z,101255.63
2023-04-23T06:33:12.868Z,101249.67
2023-04-23T06:35:41.155Z,101252.90
2023-04-23T06:38:09.297Z,101254.61
2023-04-23T06:40:37.467Z,101255.71
2023-04-23T06:43:05.615Z,101254.35
2023-04-23T06:45:34.310Z,101257.02
2023-04-23T06:48:02.536Z,101256.86
2023-04-23T06:50:31.333Z,101261.13
2023-04-23T06:52:59.600Z,101255.79
2023-04-23T06:55:29.169Z,101259.77
2023-04-23T06:57:58.374Z,101259.75
2023-04-23T07:00:26.614Z,101259.20
2023-04-23T07:02:54.922Z,101255.92
2023-04-23T07:05:23.192Z,101260.11
2023-04-23T07:07:51.493Z,101258.56
2023-04-23T07:10:19.687Z,101257.45
2023-04-23T07:12:48.568Z,101254.83
2023-04-23T07:15:16.777Z,101254.84
2023-04-23T07:17:45.016Z,101251.46
2023-04-23T07:20:13.213Z,101253.41
2023-04-23T07:22:41.462Z,101251.91
2023-04-23T07:25:09.883Z,101251.21
2023-04-23T07:27:38.081Z,101252.30
2023-04-23T07:30:07.155Z,101252.64
2023-04-23T07:32:35.342Z,101251.77
2023-04-23T07:35:05.108Z,101253.53
2023-04-23T07:37:33.328Z,101254.16
2023-04-23T07:40:02.502Z,101252.73
2023-04-23T07:42:30.632Z,101253.77
2023-04-23T07:44:58.765Z,101254.73
2023-04-23T07:47:27.187Z,101256.86
2023-04-23T07:49:55.555Z,101256.64
2023-04-23T07:52:23.950Z,101258.30
2023-04-23T07:54:52.085Z,101255.37
2023-04-23T07:57:20.428Z,101255.63
2023-04-23T07:59:48.535Z,101254.84
2023-04-23T08:02:18.681Z,101254.69
2023-04-23T08:04:47.150Z,101250.45
2023-04-23T08:07:15.401Z,101247.20
2023-04-23T08:09:43.817Z,101250.61
2023-04-23T08:12:12.312Z,101249.98
2023-04-23T08:14:40.497Z,101248.56
2023-04-23T08:17:08.648Z,101246.97
2023-04-23T08:19:36.803Z,101246.63
2023-04-23T08:22:06.984Z,101246.41
2023-04-23T08:24:35.310Z,101245.60
2023-04-23T08:27:03.699Z,101243.73
2023-04-23T08:29:31.854Z,101244.48
2023-04-23T08:31:59.991Z,101239.00
2023-04-23T08:34:28.104Z,101240.23
2023-04-23T08:36:56.178Z,101239.34
2023-04-23T08:39:24.365Z,101237.52
2023-04-23T08:41:56.106Z,101238.43
2023-04-23T08:44:26.422Z,101236.10
2023-04-23T08:46:55.922Z,101234.44
2023-04-23T08:49:24.477Z,101230.34
2023-04-23T08:51:54.253Z,101233.69
2023-04-23T08:54:27.165Z,101229.79
2023-04-23T08:56:59.092Z,101231.11
2023-04-23T08:59:30.835Z,101224.80
2023-04-23T09:02:01.421Z,101223.85
2023-04-23T09:04:31.761Z,101225.96
2023-04-23T09:07:00.420Z,101223.44
2023-04-23T09:09:29.916Z,101222.27
2023-04-23T09:11:58.628Z,101220.48
2023-04-23T09:14:26.861Z,101216.81
2023-04-23T09:16:55.470Z,101220.27
2023-04-23T09:19:27.748Z,101216.91
2023-04-23T09:21:57.808Z,101211.48
2023-04-23T09:24:26.364Z,101213.02
2023-04-23T09:26:55.204Z,101213.55
2023-04-23T09:29:24.234Z,101212.79
2023-04-23T09:31:56.614Z,101208.66
2023-04-23T09:34:25.726Z,101205.04
2023-04-23T09:36:54.301Z,101204.61
2023-04-23T09:39:23.275Z,101206.88
2023-04-23T09:41:54.576Z,101201.45
2023-04-23T09:44:23.323Z,101204.15
2023-04-23T09:46:51.565Z,101197.80
2023-04-23T09:49:19.802Z,101200.09
2023-04-23T09:51:49.383Z,101198.83
2023-04-23T09:54:21.216Z,101194.61
2023-04-23T09:56:57.115Z,101191.86
2023-04-23T09:59:39.535Z,101190.31
2023-04-23T10:02:13.987Z,101186.60
2023-04-23T10:04:42.656Z,101183.70
2023-04-23T10:09:45.190Z,101179.96
2023-04-23T10:14:46.924Z,101174.26
2023-04-23T10:17:15.446Z,101172.23
2023-04-23T10:19:44.772Z,101171.39
2023-04-23T10:24:49.338Z,101169.56
2023-04-23T10:27:28.827Z,101167.98
2023-04-23T10:30:01.830Z,101162.06
2023-04-23T10:32:31.459Z,101159.56
2023-04-23T10:34:59.672Z,101159.89
2023-04-23T10:37:28.955Z,101159.07
2023-04-23T10:40:02.060Z,101151.14
2023-04-23T10:42:30.751Z,101156.23
2023-04-23T10:45:04.666Z,101152.80
2023-04-23T10:47:35.831Z,101150.13
2023-04-23T10:50:23.940Z,101144.66
2023-04-23T10:52:54.473Z,101141.82
2023-04-23T10:55:27.383Z,101141.89
2023-04-23T10:58:04.931Z,101142.95
2023-04-23T11:00:42.150Z,101139.73
2023-04-23T11:03:32.748Z,101138.08
2023-04-23T11:06:04.887Z,101135.05
2023-04-23T11:08:35.746Z,101133.02
2023-04-23T11:11:08.893Z,101126.48
2023-04-23T11:13:52.876Z,101125.17
2023-04-23T11:16:22.569Z,101127.26
2023-04-23T11:19:00.270Z,101121.98
2023-04-23T11:22:06.805Z,101120.48
2023-04-23T11:24:47.137Z,101116.63
2023-04-23T11:27:17.561Z,101116.93
2023-04-23T11:29:47.153Z,101115.73
2023-04-23T11:32:17.391Z,101119.70
2023-04-23T11:34:47.589Z,101117.07
2023-04-23T11:37:17.592Z,101113.27
2023-04-23T11:39:47.780Z,101113.90
2023-04-23T11:42:17.472Z,101111.73
2023-04-23T11:44:46.563Z,101113.20
2023-04-23T11:47:19.245Z,101110.41
2023-04-23T11:49:48.541Z,101109.81
2023-04-23T11:52:16.710Z,101104.94
2023-04-23T11:54:47.919Z,101100.74
2023-04-23T11:57:16.088Z,101097.63
2023-04-23T11:59:47.852Z,101097.97
2023-04-23T12:02:16.595Z,101094.31
2023-04-23T12:04:48.136Z,101094.33
2023-04-23T12:07:26.271Z,101094.50
2023-04-23T12:10:00.057Z,101097.67
2023-04-23T12:12:35.603Z,101098.58
2023-04-23T12:15:07.537Z,101095.39
2023-04-23T12:17:36.277Z,101090.08
2023-04-23T12:20:07.647Z,101091.42
2023-04-23T12:22:36.005Z,101091.05
2023-04-23T12:25:09.814Z,101090.27
2023-04-23T12:27:42.877Z,101090.25
2023-04-23T12:30:12.109Z,101089.80
2023-04-23T12:32:41.547Z,101087.39
2023-04-23T12:35:11.366Z,101090.02
2023-04-23T12:37:39.496Z,101085.70
2023-04-23T12:40:08.156Z,101086.68
2023-04-23T12:42:36.792Z,101082.52
2023-04-23T12:45:07.525Z,101079.83
2023-04-23T12:47:35.665Z,101080.42
2023-04-23T12:50:05.846Z,101081.31
2023-04-23T12:52:34.153Z,101076.91
2023-04-23T12:55:05.182Z,101075.36
2023-04-23T12:57:33.459Z,101079.52
2023-04-23T13:00:01.670Z,101081.77
2023-04-23T13:02:30.112Z,101082.52
2023-04-23T13:05:01.284Z,101079.27
2023-04-23T13:07:29.746Z,101074.06
2023-04-23T13:09:59.697Z,101086.73
2023-04-23T13:12:28.137Z,101078.72
2023-04-23T13:14:56.910Z,101083.91
2023-04-23T13:17:26.581Z,101076.61
2023-04-23T13:19:55.877Z,101082.09
2023-04-23T13:22:28.522Z,101079.22
2023-04-23T13:24:59.912Z,101070.70
2023-04-23T13:27:29.668Z,101069.45
2023-04-23T13:29:58.855Z,101078.15
2023-04-23T13:32:32.121Z,101073.49
2023-04-23T13:35:03.048Z,101077.89
2023-04-23T13:37:31.992Z,101079.48
2023-04-23T13:40:00.360Z,101072.44
2023-04-23T13:42:28.704Z,101075.20
2023-04-23T13:44:57.172Z,101072.81
2023-04-23T13:47:26.863Z,101069.41
2023-04-23T13:49:55.120Z,101068.77
2023-04-23T13:52:23.439Z,101073.55
2023-04-23T13:54:53.001Z,101073.92
2023-04-23T13:57:21.289Z,101071.42
2023-04-23T13:59:50.153Z,101069.67
2023-04-23T14:02:18.685Z,101076.59
2023-04-23T14:04:47.171Z,101078.89
2023-04-23T14:07:16.322Z,101082.00
2023-04-23T14:09:46.761Z,101083.79
2023-04-23T14:12:15.258Z,101084.00
2023-04-23T14:14:43.919Z,101075.23
2023-04-23T14:17:12.222Z,101079.10
2023-04-23T14:19:40.577Z,101075.14
2023-04-23T14:22:08.970Z,101077.34
2023-04-23T14:24:45.734Z,101074.63
2023-04-23T14:27:13.982Z,101076.52
2023-04-23T14:29:46.421Z,101078.29
2023-04-23T14:32:14.663Z,101080.29
2023-04-23T14:34:42.857Z,101076.86
2023-04-23T14:37:11.491Z,101074.64
2023-04-23T14:39:40.913Z,101074.15
2023-04-23T14:42:09.473Z,101072.77
2023-04-23T14:44:37.638Z,101071.67
2023-04-23T14:47:08.244Z,101066.60
2023-04-23T14:49:36.436Z,101064.56
2023-04-23T14:52:04.564Z,101067.67
2023-04-23T14:54:32.828Z,101065.40
2023-04-23T14:57:00.907Z,101065.70
2023-04-23T14:59:29.063Z,101064.90
2023-04-23T15:01:57.369Z,101060.30
2023-04-23T15:04:25.745Z,101065.83
2023-04-23T15:06:54.019Z,101057.77
2023-04-23T15:09:22.254Z,101060.13
2023-04-23T15:11:51.363Z,101058.23
2023-04-23T15:14:33.130Z,101062.90
2023-04-23T15:17:01.527Z,101065.75
2023-04-23T15:19:31.449Z,101070.61
2023-04-23T15:21:59.793Z,101071.69
2023-04-23T15:24:27.955Z,101069.80
2023-04-23T15:26:58.244Z,101070.68
2023-04-23T15:29:26.470Z,101073.67
2023-04-23T15:31:58.211Z,101074.44
2023-04-23T15:34:26.670Z,101076.48
2023-04-23T15:36:54.850Z,101080.84
2023-04-23T15:39:22.964Z,101078.41
2023-04-23T15:41:53.959Z,101079.05
2023-04-23T15:44:22.167Z,101078.98
2023-04-23T15:46:50.272Z,101074.17
2023-04-23T15:49:18.441Z,101077.66
2023-04-23T15:51:46.770Z,101072.02
2023-04-23T15:54:14.940Z,101072.73
2023-04-23T15:56:43.033Z,101071.21
2023-04-23T15:59:11.295Z,101070.46
2023-04-23T16:01:39.693Z,101073.23
2023-04-23T16:04:10.284Z,101073.20
2023-04-23T16:06:39.937Z,101074.52
2023-04-23T16:09:08.794Z,101074.90
2023-04-23T16:11:38.177Z,101073.32
2023-04-23T16:14:07.265Z,101072.90
2023-04-23T16:16:35.792Z,101076.41
2023-04-23T16:19:04.062Z,101076.40
2023-04-23T16:21:32.928Z,101075.86
2023-04-23T16:24:01.360Z,101079.41
2023-04-23T16:26:29.550Z,101079.14
2023-04-23T16:29:11.472Z,101076.93
2023-04-23T16:31:45.484Z,101075.66
2023-04-23T16:34:13.614Z,101075.58
2023-04-23T16:36:41.968Z,101077.80
2023-04-23T16:39:10.239Z,101078.43
2023-04-23T16:41:38.798Z,101080.05
2023-04-23T16:44:11.037Z,101083.40
2023-04-23T16:46:39.529Z,101082.91
2023-04-23T16:49:08.342Z,101084.92
2023-04-23T16:51:36.440Z,101087.83
2023-04-23T16:54:04.673Z,101089.98
2023-04-23T16:56:33.584Z,101090.52
2023-04-23T16:59:02.136Z,101089.61
2023-04-23T17:01:30.265Z,101089.69
2023-04-23T17:03:58.599Z,101088.55
2023-04-23T17:06:28.953Z,101088.43
2023-04-23T17:08:58.459Z,101090.83
2023-04-23T17:11:30.894Z,101091.61
2023-04-23T17:13:59.288Z,101096.83
2023-04-23T17:16:27.646Z,101094.67
2023-04-23T17:18:56.076Z,101096.65
2023-04-23T17:21:24.612Z,101097.17
2023-04-23T17:23:52.847Z,101097.65
2023-04-23T17:26:21.052Z,101098.64
2023-04-23T17:28:49.297Z,101098.80
2023-04-23T17:31:18.001Z,101094.60
2023-04-23T17:33:49.564Z,101099.36
2023-04-23T17:36:17.917Z,101099.36
2023-04-23T17:38:46.444Z,101101.98
2023-04-23T17:41:14.709Z,101103.52
2023-04-23T17:43:42.986Z,101103.29
2023-04-23T17:46:11.127Z,101102.58
2023-04-23T17:48:39.352Z,101102.75
2023-04-23T17:51:07.531Z,101099.83
2023-04-23T17:53:36.512Z,101103.10
2023-04-23T17:56:04.807Z,101100.98
2023-04-23T17:58:32.892Z,101103.04
2023-04-23T18:01:01.138Z,101106.55
2023-04-23T18:03:30.379Z,101108.32
2023-04-23T18:05:58.874Z,101110.04
2023-04-23T18:08:27.262Z,101112.02
2023-04-23T18:10:55.619Z,101112.41
2023-04-23T18:13:23.779Z,101116.10
2023-04-23T18:15:52.136Z,101117.97
2023-04-23T18:18:21.952Z,101120.59
2023-04-23T18:20:52.220Z,101117.71
2023-04-23T18:23:21.987Z,101120.17
2023-04-23T18:25:50.275Z,101121.98
2023-04-23T18:28:18.528Z,101121.81
2023-04-23T18:30:46.753Z,101124.59
2023-04-23T18:33:42.726Z,101127.79
2023-04-23T18:36:22.233Z,101131.27
2023-04-23T18:38:50.503Z,101138.27
2023-04-23T18:41:18.712Z,101147.55
2023-04-23T18:43:46.945Z,101144.95
2023-04-23T18:46:15.678Z,101148.10
2023-04-23T18:48:58.930Z,101148.27
2023-04-23T18:51:33.416Z,101149.80
2023-04-23T18:54:01.966Z,101152.45
2023-04-23T18:56:30.223Z,101152.15
2023-04-23T18:58:58.327Z,101153.09
2023-04-23T19:01:28.088Z,101155.08
2023-04-23T19:03:57.346Z,101156.38
2023-04-23T19:06:26.792Z,101156.96
2023-04-23T19:08:54.976Z,101157.41
2023-04-23T19:11:23.158Z,101158.44
2023-04-23T19:13:51.349Z,101156.30
2023-04-23T19:16:19.669Z,101148.10
2023-04-23T19:18:48.043Z,101143.95
2023-04-23T19:21:16.233Z,101143.79
2023-04-23T19:23:44.394Z,101143.95
2023-04-23T19:26:12.503Z,101143.28
2023-04-23T19:28:40.817Z,101144.30
2023-04-23T19:31:09.044Z,101143.41
2023-04-23T19:33:37.199Z,101142.98
2023-04-23T19:36:11.657Z,101140.67
2023-04-23T19:38:40.542Z,101142.87
2023-04-23T19:41:08.749Z,101143.75
2023-04-23T19:43:36.902Z,101148.16
2023-04-23T19:46:05.081Z,101148.73
2023-04-23T19:48:33.599Z,101150.98
2023-04-23T19:51:02.172Z,101151.79
2023-04-23T19:53:30.699Z,101149.61
2023-04-23T19:55:58.952Z,101150.75
2023-04-23T19:58:27.120Z,101152.31
2023-04-23T20:00:55.322Z,101150.27
2023-04-23T20:03:23.702Z,101147.80
2023-04-23T20:05:52.558Z,101142.55
2023-04-23T20:08:26.363Z,101139.21
2023-04-23T20:10:54.629Z,101133.79
2023-04-23T20:13:23.830Z,101133.61
2023-04-23T20:15:53.861Z,101128.49
2023-04-23T20:18:22.199Z,101122.83
2023-04-23T20:20:50.383Z,101122.62
2023-04-23T20:23:18.535Z,101117.84
2023-04-23T20:25:46.688Z,101114.51
2023-04-23T20:28:14.839Z,101112.46
2023-04-23T20:30:42.944Z,101109.33
2023-04-23T20:33:11.221Z,101107.41
2023-04-23T20:35:39.843Z,101107.56
2023-04-23T20:38:08.037Z,101106.30
2023-04-23T20:40:36.192Z,101106.79
2023-04-23T20:43:05.711Z,101103.75
2023-04-23T20:45:34.745Z,101102.44
2023-04-23T20:48:03.890Z,101102.59
2023-04-23T20:50:32.226Z,101100.91
2023-04-23T20:53:00.509Z,101094.16
2023-04-23T20:55:28.705Z,101090.35
2023-04-23T20:57:56.909Z,101087.70
2023-04-23T21:00:25.281Z,101085.59
2023-04-23T21:02:53.961Z,101082.45
2023-04-23T21:05:22.251Z,101081.27
2023-04-23T21:07:50.875Z,101081.75
2023-04-23T21:10:19.203Z,101079.45
2023-04-23T21:12:47.422Z,101075.79
2023-04-23T21:15:16.906Z,101070.77
2023-04-23T21:17:45.228Z,101072.92
2023-04-23T21:20:13.656Z,101064.46
2023-04-23T21:22:41.745Z,101063.35
2023-04-23T21:25:10.285Z,101059.00
2023-04-23T21:27:38.970Z,101055.23
2023-04-23T21:30:14.487Z,101055.34
2023-04-23T21:32:42.730Z,101060.90
2023-04-23T21:35:11.018Z,101060.08
2023-04-23T21:37:39.198Z,101060.28
2023-04-23T21:40:09.276Z,101062.30
2023-04-23T21:42:37.548Z,101065.14
2023-04-23T21:45:06.582Z,101067.13
2023-04-23T21:47:34.755Z,101064.33
2023-04-23T21:50:03.354Z,101064.17
2023-04-23T21:52:31.588Z,101065.86
2023-04-23T21:54:59.736Z,101062.75
2023-04-23T21:57:28.066Z,101064.88
2023-04-23T21:59:56.267Z,101063.17
2023-04-23T22:02:24.717Z,101062.63
2023-04-23T22:04:53.150Z,101060.70
2023-04-23T22:07:21.463Z,101060.17
2023-04-23T22:09:49.734Z,101058.73
2023-04-23T22:12:17.894Z,101059.17
2023-04-23T22:14:45.995Z,101054.39
2023-04-23T22:17:14.115Z,101059.31
2023-04-23T22:19:42.623Z,101056.34
2023-04-23T22:22:11.005Z,101055.23
2023-04-23T22:24:39.135Z,101049.69
2023-04-23T22:27:07.296Z,101049.25
2023-04-23T22:29:35.467Z,101043.79
2023-04-23T22:32:03.662Z,101044.73
2023-04-23T22:34:31.944Z,101042.66
2023-04-23T22:37:00.065Z,101040.45
2023-04-23T22:39:28.526Z,101042.33
2023-04-23T22:41:57.049Z,101039.59
2023-04-23T22:44:25.189Z,101043.35
2023-04-23T22:46:53.487Z,101037.72
2023-04-23T22:49:21.704Z,101036.89
2023-04-23T22:51:49.962Z,101036.17
2023-04-23T22:54:18.056Z,101033.39
2023-04-23T22:56:46.285Z,101033.55
2023-04-23T22:59:14.452Z,101031.85
2023-04-23T23:01:43.424Z,101033.88
2023-04-23T23:04:13.134Z,101028.75
2023-04-23T23:06:44.105Z,101029.58
2023-04-23T23:09:12.379Z,101029.80
2023-04-23T23:11:40.680Z,101025.60
2023-04-23T23:14:08.764Z,101024.44
2023-04-23T23:16:36.951Z,101020.24
2023-04-23T23:19:05.088Z,101017.17
2023-04-23T23:21:33.627Z,101015.25
2023-04-23T23:24:01.788Z,101013.52
2023-04-23T23:26:29.953Z,101009.81
2023-04-23T23:28:58.024Z,101008.54
2023-04-23T23:31:27.101Z,101010.77
2023-04-23T23:33:55.245Z,101007.88
2023-04-23T23:36:23.398Z,101013.12
2023-04-23T23:38:52.894Z,101013.66
2023-04-23T23:41:21.186Z,101016.41
2023-04-23T23:43:49.298Z,101014.50
2023-04-23T23:46:18.233Z,101012.94
2023-04-23T23:48:47.200Z,101010.55
2023-04-23T23:51:16.190Z,101008.77
2023-04-23T23:53:44.437Z,101005.39
2023-04-23T23:56:12.601Z,101004.77
2023-04-23T23:58:40.729Z,101001.87
